Time;durP1;ratioP1;P1;durP2;ratioP2;P2;SDS_P1;SDS_P2;PMS_P1;PMS_P2;Temp;Humidity;BMP_temperature;BMP_pressure;BME280_temperature;BME280_humidity;BME280_pressure;Samples;Min_cycle;Max_cycle;Signal;HPM_P1;HPM_P2
2023/07/08 00:02:10;;;;;;;;;;;;;;;23.45;100.00;100165.50;5066077;28;19956;-77
2023/07/08 00:04:36;;;;;;;;;;;;;;;23.52;100.00;100169.03;5067782;28;19920;-76
2023/07/08 00:07:01;;;;;;;;;;;;;;;23.54;100.00;100175.88;5070177;28;20403;-78
2023/07/08 00:09:26;;;;;;;;;;;;;;;23.51;100.00;100180.84;5068425;28;19966;-77
2023/07/08 00:11:52;;;;;;;;;;;;;;;23.59;100.00;100169.84;5067384;28;19917;-76
2023/07/08 00:14:17;;;;;;;;;;;;;;;23.66;100.00;100159.88;5068456;28;19912;-77
2023/07/08 00:16:43;;;;;;;;;;;;;;;23.69;100.00;100156.75;5069669;28;19984;-78
2023/07/08 00:19:09;;;;;;;;;;;;;;;23.56;100.00;100163.00;5067963;28;19938;-78
2023/07/08 00:21:35;;;;;;;;;;;;;;;23.65;100.00;100150.16;5070103;28;19916;-77
2023/07/08 00:24:01;;;;;;;;;;;;;;;23.63;100.00;100152.22;5069949;28;19970;-76
2023/07/08 00:26:28;;;;;;;;;;;;;;;23.66;100.00;100151.81;5069319;28;19917;-76
2023/07/08 00:28:53;;;;;;;;;;;;;;;23.63;100.00;100146.81;5064003;28;19923;-76
2023/07/08 00:31:23;;;;;;;;;;;;;;;23.54;100.00;100148.13;5064022;28;20383;-77
2023/07/08 00:33:49;;;;;;;;;;;;;;;23.51;100.00;100143.13;5069445;28;19942;-77
2023/07/08 00:36:15;;;;;;;;;;;;;;;23.55;100.00;100149.78;5069266;28;19940;-77
2023/07/08 00:38:44;;;;;;;;;;;;;;;23.53;100.00;100146.47;5069168;28;19943;-76
2023/07/08 00:41:30;;;;;;;;;;;;;;;23.51;100.00;100146.66;5069465;28;19955;-77
2023/07/08 00:43:57;;;;;;;;;;;;;;;23.53;100.00;100135.69;5069057;28;19916;-76
2023/07/08 00:46:31;;;;;;;;;;;;;;;23.56;100.00;100144.16;5069461;28;20386;-76
2023/07/08 00:49:06;;;;;;;;;;;;;;;23.48;100.00;100154.34;5069296;28;20397;-75
2023/07/08 00:51:32;;;;;;;;;;;;;;;23.48;100.00;100151.66;5067815;28;19943;-77
2023/07/08 00:53:57;;;;;;;;;;;;;;;23.41;100.00;100148.13;5069819;28;20383;-76
2023/07/08 00:56:29;;;;;;;;;;;;;;;23.28;100.00;100141.72;5063742;28;20356;-77
2023/07/08 00:59:03;;;;;;;;;;;;;;;23.37;100.00;100136.13;5067014;28;19921;-77
2023/07/08 01:01:31;;;;;;;;;;;;;;;23.43;100.00;100140.66;5070303;28;19924;-77
2023/07/08 01:04:02;;;;;;;;;;;;;;;23.40;100.00;100131.13;5070979;28;19940;-75
2023/07/08 01:06:31;;;;;;;;;;;;;;;23.38;100.00;100137.78;5071908;28;20374;-76
2023/07/08 01:08:58;;;;;;;;;;;;;;;23.29;100.00;100126.41;5067590;28;19924;-75
2023/07/08 01:11:23;;;;;;;;;;;;;;;23.11;100.00;100124.38;5072112;28;20372;-76
2023/07/08 01:13:50;;;;;;;;;;;;;;;22.98;100.00;100126.25;5072647;28;19927;-76
2023/07/08 01:16:16;;;;;;;;;;;;;;;23.09;100.00;100123.75;5072970;28;20389;-77
2023/07/08 01:18:43;;;;;;;;;;;;;;;23.07;100.00;100125.84;5063108;28;20019;-75
2023/07/08 01:21:29;;;;;;;;;;;;;;;23.11;100.00;100120.84;5072632;28;20014;-77
2023/07/08 01:23:54;;;;;;;;;;;;;;;23.13;100.00;100119.63;5071934;28;19948;-76
2023/07/08 01:26:22;;;;;;;;;;;;;;;23.14;100.00;100113.19;5071497;28;20370;-76
2023/07/08 01:28:48;;;;;;;;;;;;;;;23.20;100.00;100125.81;5070751;28;19923;-75
2023/07/08 01:31:13;;;;;;;;;;;;;;;23.22;100.00;100139.03;5071132;28;19916;-76
2023/07/08 01:33:39;;;;;;;;;;;;;;;23.12;100.00;100139.50;5071117;28;19920;-77
2023/07/08 01:36:04;;;;;;;;;;;;;;;23.08;100.00;100146.34;5072124;28;19916;-77
2023/07/08 01:38:29;;;;;;;;;;;;;;;23.06;100.00;100140.31;5072204;28;19916;-77
2023/07/08 01:40:56;;;;;;;;;;;;;;;23.06;100.00;100132.25;5067037;28;19921;-77
2023/07/08 01:43:22;;;;;;;;;;;;;;;23.11;100.00;100132.44;5071090;28;19958;-76
2023/07/08 01:45:48;;;;;;;;;;;;;;;23.16;100.00;100138.03;5066444;28;19959;-77
2023/07/08 01:48:15;;;;;;;;;;;;;;;23.17;100.00;100126.22;5072124;28;19924;-76
2023/07/08 01:50:42;;;;;;;;;;;;;;;23.13;100.00;100118.78;5071501;28;19926;-77
2023/07/08 01:53:16;;;;;;;;;;;;;;;23.06;100.00;100116.09;5066832;28;19920;-77
2023/07/08 01:55:42;;;;;;;;;;;;;;;22.96;100.00;100118.41;5069310;28;19920;-78
2023/07/08 01:58:08;;;;;;;;;;;;;;;22.80;100.00;100118.81;5066890;28;20260;-77
2023/07/08 02:00:33;;;;;;;;;;;;;;;22.77;100.00;100113.88;5066130;28;19931;-76
2023/07/08 02:03:00;;;;;;;;;;;;;;;22.81;100.00;100109.72;5071818;28;19916;-77
2023/07/08 02:05:26;;;;;;;;;;;;;;;22.77;100.00;100097.72;5071360;28;19916;-76
2023/07/08 02:07:51;;;;;;;;;;;;;;;22.76;100.00;100101.44;5071751;28;19924;-76
2023/07/08 02:10:17;;;;;;;;;;;;;;;22.73;100.00;100096.50;5071851;28;19963;-76
2023/07/08 02:12:42;;;;;;;;;;;;;;;22.72;100.00;100101.03;5070960;28;19924;-76
2023/07/08 02:15:09;;;;;;;;;;;;;;;22.70;100.00;100104.94;5066350;28;19916;-76
2023/07/08 02:17:34;;;;;;;;;;;;;;;22.69;100.00;100112.16;5065654;28;20386;-76
2023/07/08 02:19:59;;;;;;;;;;;;;;;22.59;100.00;100110.94;5071591;28;19924;-75
2023/07/08 02:22:25;;;;;;;5.40;3.42;;;;;;;22.52;100.00;100115.47;5069887;28;20402;-76
2023/07/08 02:24:50;;;;;;;6.50;3.78;;;;;;;22.43;100.00;100122.94;5069711;28;20484;-76
2023/07/08 02:27:16;;;;;;;7.30;3.95;;;;;;;22.37;100.00;100132.66;5071158;28;20436;-77
2023/07/08 02:29:42;;;;;;;5.60;3.80;;;;;;;22.21;100.00;100129.50;5070580;28;20119;-76
2023/07/08 02:32:09;;;;;;;3.88;3.10;;;;;;;22.17;100.00;100131.78;5069885;28;20170;-77
2023/07/08 02:34:36;;;;;;;6.38;3.70;;;;;;;22.10;100.00;100139.00;5066698;28;20036;-76
2023/07/08 02:37:01;;;;;;;4.53;3.97;;;;;;;21.98;100.00;100129.88;5070461;28;20047;-77
2023/07/08 02:39:27;;;;;;;5.60;4.28;;;;;;;21.94;100.00;100128.59;5070345;28;20506;-76
2023/07/08 02:41:52;;;;;;;4.75;4.05;;;;;;;21.99;100.00;100126.16;5070930;28;20089;-75
2023/07/08 02:44:18;;;;;;;9.45;4.93;;;;;;;22.05;100.00;100130.72;5070574;28;20028;-75
2023/07/08 02:46:43;;;;;;;5.28;4.07;;;;;;;22.15;100.00;100136.53;5070148;28;20043;-77
2023/07/08 02:49:09;;;;;;;4.43;3.67;;;;;;;22.25;100.00;100128.91;5070352;28;20032;-78
2023/07/08 02:51:34;;;;;;;5.15;4.57;;;;;;;22.34;100.00;100130.38;5065863;28;20041;-77
2023/07/08 02:53:59;;;;;;;4.50;4.10;;;;;;;22.35;100.00;100126.66;5070475;28;20060;-76
2023/07/08 02:56:28;;;;;;;6.20;3.67;;;;;;;22.36;100.00;100117.56;5070345;28;20040;-76
2023/07/08 02:58:53;;;;;;;5.38;4.32;;;;;;;22.39;100.00;100117.13;5069052;28;20031;-76
2023/07/08 03:01:19;;;;;;;4.90;4.00;;;;;;;22.38;100.00;100126.22;5069279;28;20123;-77
2023/07/08 03:03:45;;;;;;;7.65;3.95;;;;;;;22.45;100.00;100124.38;5070057;28;20031;-77
2023/07/08 03:06:11;;;;;;;5.25;3.63;;;;;;;22.53;100.00;100111.75;5050706;28;20039;-75
2023/07/08 03:08:36;;;;;;;5.70;4.28;;;;;;;22.62;100.00;100105.16;5068224;28;20036;-76
2023/07/08 03:11:04;;;;;;;4.22;3.85;;;;;;;22.68;100.00;100105.13;5070563;28;20035;-75
2023/07/08 03:13:31;;;;;;;5.30;4.40;;;;;;;22.71;100.00;100093.13;5070124;28;20116;-75
2023/07/08 03:15:59;;;;;;;5.75;4.10;;;;;;;22.76;100.00;100091.50;5070211;28;20040;-74
2023/07/08 03:18:26;;;;;;;3.90;3.60;;;;;;;22.77;100.00;100087.78;5069789;28;20028;-74
2023/07/08 03:20:56;;;;;;;5.00;4.00;;;;;;;22.79;100.00;100080.34;5068247;28;20102;-76
2023/07/08 03:23:23;;;;;;;6.27;4.30;;;;;;;22.84;100.00;100087.78;5067450;28;20560;-74
2023/07/08 03:25:50;;;;;;;4.07;3.67;;;;;;;22.85;100.00;100094.81;5068338;28;20028;-75
2023/07/08 03:28:17;;;;;;;3.95;3.60;;;;;;;22.83;100.00;100096.88;5068581;28;20494;-76
2023/07/08 03:30:43;;;;;;;;;;;;;;;22.86;100.00;100085.69;5068568;28;20040;-76
2023/07/08 03:33:09;;;;;;;;;;;;;;;22.88;100.00;100088.19;5060860;28;19913;-76
2023/07/08 03:35:34;;;;;;;;;;;;;;;22.94;100.00;100098.94;5065652;28;20440;-77
2023/07/08 03:38:00;;;;;;;;;;;;;;;22.99;100.00;100115.28;5064370;28;19916;-77
2023/07/08 03:40:25;;;;;;;;;;;;;;;23.01;100.00;100126.69;5064745;28;19916;-77
2023/07/08 03:42:50;;;;;;;;;;;;;;;23.02;100.00;100122.94;5070008;28;19917;-77
2023/07/08 03:45:16;;;;;;;;;;;;;;;23.06;100.00;100110.72;5070394;28;19912;-77
2023/07/08 03:47:42;;;;;;;;;;;;;;;23.02;100.00;100120.25;5068364;28;19927;-77
2023/07/08 03:50:26;;;;;;;;;;;;;;;23.08;100.00;100138.25;5068746;28;20351;-77
2023/07/08 03:52:53;;;;;;;;;;;;;;;22.97;100.00;100136.22;5066870;28;19917;-75
2023/07/08 03:55:19;;;;;;;;;;;;;;;22.80;100.00;100134.97;5068065;28;19916;-76
2023/07/08 03:57:45;;;;;;;;;;;;;;;22.79;100.00;100133.34;5078181;28;20380;-77
2023/07/08 04:00:14;;;;;;;;;;;;;;;22.80;100.00;100134.97;5064303;28;19916;-76
2023/07/08 04:02:40;;;;;;;;;;;;;;;22.81;100.00;100136.63;5066302;28;19920;-76
2023/07/08 04:05:06;;;;;;;;;;;;;;;22.80;100.00;100135.78;5068464;28;19921;-75
2023/07/08 04:07:32;;;;;;;;;;;;;;;22.68;100.00;100139.31;5068469;28;20019;-77
2023/07/08 04:09:57;;;;;;;;;;;;;;;22.56;100.00;100146.34;5067938;28;20383;-76
2023/07/08 04:12:22;;;;;;;;;;;;;;;22.46;100.00;100142.16;5068137;28;20297;-76
2023/07/08 04:14:47;;;;;;;;;;;;;;;22.48;100.00;100138.44;5069550;28;19974;-77
2023/07/08 04:17:14;;;;;;;;;;;;;;;22.49;100.00;100138.25;5069334;28;19927;-75
2023/07/08 04:19:39;;;;;;;;;;;;;;;22.56;100.00;100138.25;5069413;28;20014;-76
2023/07/08 04:22:05;;;;;;;;;;;;;;;22.54;100.00;100140.31;5069257;28;20003;-75
2023/07/08 04:24:31;;;;;;;;;;;;;;;22.54;100.00;100124.19;5069227;28;19962;-78
2023/07/08 04:26:56;;;;;;;;;;;;;;;22.55;100.00;100141.97;5069272;28;19920;-76
2023/07/08 04:29:22;;;;;;;;;;;;;;;22.58;100.00;100133.50;5068142;28;19952;-77
2023/07/08 04:31:48;;;;;;;;;;;;;;;22.58;100.00;100138.88;5069428;28;19973;-77
2023/07/08 04:34:14;;;;;;;;;;;;;;;22.60;100.00;100139.50;5068196;28;19916;-76
2023/07/08 04:36:39;;;;;;;;;;;;;;;22.65;100.00;100137.00;5072570;28;19965;-76
2023/07/08 04:39:05;;;;;;;;;;;;;;;22.68;100.00;100132.03;5073230;28;19923;-76
2023/07/08 04:41:31;;;;;;;;;;;;;;;22.72;100.00;100137.88;5073012;28;19923;-77
2023/07/08 04:43:57;;;;;;;;;;;;;;;22.79;100.00;100138.72;5071938;28;19916;-76
2023/07/08 04:46:34;;;;;;;;;;;;;;;22.83;100.00;100131.88;5073545;28;20275;-77
2023/07/08 04:49:00;;;;;;;;;;;;;;;22.83;100.00;100129.19;5073062;28;19967;-76
2023/07/08 04:51:25;;;;;;;;;;;;;;;22.83;100.00;100123.78;5083950;28;20024;-76
2023/07/08 04:53:51;;;;;;;;;;;;;;;22.90;100.00;100118.41;5071280;28;19923;-76
2023/07/08 04:56:16;;;;;;;;;;;;;;;22.92;100.00;100127.91;5073111;28;20330;-77
2023/07/08 04:58:42;;;;;;;;;;;;;;;22.96;100.00;100123.78;5072606;28;19916;-76
2023/07/08 05:01:07;;;;;;;;;;;;;;;22.99;100.00;100126.03;5072805;28;20006;-78
2023/07/08 05:03:32;;;;;;;;;;;;;;;22.98;100.00;100131.63;5070186;28;19935;-77
2023/07/08 05:05:58;;;;;;;;;;;;;;;22.89;100.00;100139.09;5072781;28;20015;-76
2023/07/08 05:08:23;;;;;;;;;;;;;;;22.86;100.00;100144.91;5072543;28;19916;-76
2023/07/08 05:10:48;;;;;;;;;;;;;;;22.87;100.00;100135.78;5085266;22;19931;-76
2023/07/08 05:13:14;;;;;;;;;;;;;;;22.90;100.00;100145.31;5067584;28;19921;-78
2023/07/08 05:15:39;;;;;;;;;;;;;;;22.95;100.00;100154.44;5073078;28;20010;-80
2023/07/08 05:18:04;;;;;;;;;;;;;;;22.98;100.00;100151.31;5069019;28;20012;-79
2023/07/08 05:20:32;;;;;;;;;;;;;;;23.05;100.00;100165.59;5073103;28;19999;-77
2023/07/08 05:22:58;;;;;;;;;;;;;;;23.05;100.00;100162.91;5073095;28;19928;-78
2023/07/08 05:25:23;;;;;;;;;;;;;;;23.10;100.00;100154.19;5072423;28;19939;-79
2023/07/08 05:27:48;;;;;;;;;;;;;;;23.12;100.00;100150.25;5072123;28;20039;-78
2023/07/08 05:30:17;;;;;;;;;;;;;;;23.16;100.00;100156.88;5072885;28;19956;-80
2023/07/08 05:32:43;;;;;;;;;;;;;;;23.16;100.00;100156.88;5070926;28;19924;-80
2023/07/08 05:35:09;;;;;;;;;;;;;;;23.17;100.00;100163.09;5072781;28;20402;-78
2023/07/08 05:37:34;;;;;;;;;;;;;;;23.16;100.00;100162.25;5072149;28;19916;-78
2023/07/08 05:40:02;;;;;;;;;;;;;;;23.17;100.00;100166.59;5072587;28;20024;-79
2023/07/08 05:42:27;;;;;;;;;;;;;;;23.19;100.00;100169.94;5071160;28;19916;-79
2023/07/08 05:44:54;;;;;;;;;;;;;;;23.19;100.00;100161.84;5072339;28;19935;-73
2023/07/08 05:47:20;;;;;;;;;;;;;;;23.25;100.00;100161.00;5071197;28;19920;-73
2023/07/08 05:49:45;;;;;;;;;;;;;;;23.24;100.00;100158.53;5072368;28;19998;-75
2023/07/08 05:52:11;;;;;;;;;;;;;;;23.29;100.00;100164.09;5072440;28;20001;-74
2023/07/08 05:54:37;;;;;;;;;;;;;;;23.34;100.00;100163.47;5072167;28;19926;-75
2023/07/08 05:57:02;;;;;;;;;;;;;;;23.22;100.00;100177.56;5071618;28;19917;-74
2023/07/08 05:59:28;;;;;;;;;;;;;;;23.21;100.00;100175.91;5071934;28;20026;-75
2023/07/08 06:01:53;;;;;;;;;;;;;;;23.20;100.00;100187.75;5072587;28;19916;-75
2023/07/08 06:04:18;;;;;;;;;;;;;;;23.18;100.00;100189.81;5071154;28;20343;-74
2023/07/08 06:06:43;;;;;;;;;;;;;;;23.24;100.00;100188.97;5072223;28;20334;-75
2023/07/08 06:09:09;;;;;;;;;;;;;;;23.27;100.00;100183.16;5072815;28;19928;-75
2023/07/08 06:11:34;;;;;;;;;;;;;;;23.37;100.00;100190.00;5067928;28;19923;-75
2023/07/08 06:13:59;;;;;;;;;;;;;;;23.47;100.00;100198.47;5071675;28;19917;-75
2023/07/08 06:16:25;;;;;;;;;;;;;;;23.50;100.00;100198.06;5072201;28;19970;-75
2023/07/08 06:18:50;;;;;;;;;;;;;;;23.48;100.00;100208.22;5072462;28;20320;-75
2023/07/08 06:21:15;;;;;;;;;;;;;;;23.53;100.00;100205.72;5071023;28;19916;-73
2023/07/08 06:23:41;;;;;;;;;;;;;;;23.61;100.00;100214.41;5070534;28;19959;-74
2023/07/08 06:26:06;;;;;;;;;;;;;;;23.68;100.00;100214.38;5072138;28;20009;-74
2023/07/08 06:28:31;;;;;;;;;;;;;;;23.69;100.00;100221.44;5071305;28;19924;-74
2023/07/08 06:30:57;;;;;;;;;;;;;;;23.71;100.00;100213.13;5072196;28;20318;-75
2023/07/08 06:33:22;;;;;;;;;;;;;;;23.76;100.00;100206.06;5071927;28;19916;-74
2023/07/08 06:35:47;;;;;;;;;;;;;;;23.79;100.00;100205.66;5071809;28;20014;-74
2023/07/08 06:38:14;;;;;;;;;;;;;;;23.91;100.00;100209.34;5071913;28;19916;-73
2023/07/08 06:40:39;;;;;;;;;;;;;;;24.04;100.00;100216.53;5071595;28;20386;-75
2023/07/08 06:43:04;;;;;;;;;;;;;;;24.17;100.00;100207.56;5071122;28;19916;-74
2023/07/08 06:45:35;;;;;;;;;;;;;;;24.26;100.00;100217.09;5065400;28;19973;-74
2023/07/08 06:48:03;;;;;;;;;;;;;;;24.27;100.00;100213.38;5071560;28;19999;-74
2023/07/08 06:50:28;;;;;;;;;;;;;;;24.28;100.00;100220.38;5070560;28;20015;-74
2023/07/08 06:52:53;;;;;;;;;;;;;;;24.32;100.00;100210.84;5070165;28;20375;-75
2023/07/08 06:55:19;;;;;;;;;;;;;;;24.20;100.00;100212.56;5071772;28;19920;-74
2023/07/08 06:57:44;;;;;;;;;;;;;;;24.21;100.00;100214.22;5071262;28;20783;-77
2023/07/08 07:00:10;;;;;;;;;;;;;;;24.28;100.00;100209.59;5070292;28;19920;-78
2023/07/08 07:02:36;;;;;;;;;;;;;;;24.34;100.00;100214.13;5071450;28;19923;-77
2023/07/08 07:05:02;;;;;;;;;;;;;;;24.40;100.00;100226.75;5071136;28;19920;-76
2023/07/08 07:07:27;;;;;;;;;;;;;;;24.44;100.00;100225.28;5071164;28;19916;-78
2023/07/08 07:09:54;;;;;;;;;;;;;;;24.32;100.00;100221.63;5071706;28;19957;-78
2023/07/08 07:12:19;;;;;;;;;;;;;;;24.43;100.00;100229.03;5071139;28;19920;-77
2023/07/08 07:14:44;;;;;;;;;;;;;;;24.44;100.00;100233.41;5071154;28;19920;-78
2023/07/08 07:17:10;;;;;;;;;;;;;;;24.52;100.00;100233.13;5071082;28;19912;-78
2023/07/08 07:19:35;;;;;;;;;;;;;;;24.58;100.00;100232.25;5070829;28;19917;-77
2023/07/08 07:22:00;;;;;;;;;;;;;;;24.64;100.00;100225.97;5071168;28;19981;-77
2023/07/08 07:24:26;;;;;;;;;;;;;;;24.50;100.00;100219.03;5071208;28;20400;-78
2023/07/08 07:26:51;;;;;;;;;;;;;;;24.50;100.00;100224.44;5070750;28;19920;-77
2023/07/08 07:29:17;;;;;;;;;;;;;;;24.64;100.00;100215.19;5071448;28;20415;-78
2023/07/08 07:31:42;;;;;;;;;;;;;;;24.73;100.00;100213.06;5070449;28;20799;-78
2023/07/08 07:34:08;;;;;;;;;;;;;;;24.69;100.00;100218.06;5071162;28;19916;-78
2023/07/08 07:36:35;;;;;;;;;;;;;;;24.67;100.00;100214.78;5069415;28;19922;-78
2023/07/08 07:39:00;;;;;;;;;;;;;;;24.64;100.00;100214.34;5071251;28;19972;-77
2023/07/08 07:41:25;;;;;;;;;;;;;;;24.65;100.00;100218.72;5069835;28;19985;-78
2023/07/08 07:43:51;;;;;;;;;;;;;;;24.72;100.00;100214.94;5070826;28;19923;-77
2023/07/08 07:46:16;;;;;;;;;;;;;;;24.71;100.00;100215.97;5070561;28;19924;-78
2023/07/08 07:48:42;;;;;;;;;;;;;;;24.81;100.00;100220.88;5070102;28;19917;-78
2023/07/08 07:51:10;;;;;;;;;;;;;;;24.86;100.00;100219.16;5071383;28;20444;-78
2023/07/08 07:53:35;;;;;;;;;;;;;;;24.90;100.00;100214.22;5070571;28;19940;-76
2023/07/08 07:56:03;;;;;;;;;;;;;;;24.99;100.00;100217.44;5070550;28;19967;-75
2023/07/08 07:58:29;;;;;;;;;;;;;;;25.06;100.00;100224.47;5070170;28;19969;-77
2023/07/08 08:00:54;;;;;;;;;;;;;;;25.13;100.00;100224.41;5070296;28;19920;-77
2023/07/08 08:03:20;;;;;;;;;;;;;;;25.16;100.00;100234.75;5070402;28;20376;-76
2023/07/08 08:05:46;;;;;;;;;;;;;;;25.10;100.00;100230.22;5069980;28;19928;-77
2023/07/08 08:08:11;;;;;;;;;;;;;;;25.08;100.00;100229.66;5070906;28;20039;-76
2023/07/08 08:10:36;;;;;;;;;;;;;;;25.13;100.00;100225.22;5073016;28;19923;-76
2023/07/08 08:13:02;;;;;;;;;;;;;;;25.19;100.00;100234.31;5074578;28;19975;-75
2023/07/08 08:15:27;;;;;;;;;;;;;;;25.29;100.00;100226.53;5074847;28;19920;-77
2023/07/08 08:17:53;;;;;;;;;;;;;;;25.36;100.00;100230.00;5074776;28;19932;-78
2023/07/08 08:20:19;;;;;;;;;;;;;;;25.41;100.00;100219.34;5074616;28;20362;-76
2023/07/08 08:22:45;;;;;;;;;;;;;;;25.47;100.00;100223.88;5074360;28;19930;-76
2023/07/08 08:25:10;;;;;;;;;;;;;;;25.52;100.00;100232.13;5074586;28;19917;-76
2023/07/08 08:27:36;;;;;;;;;;;;;;;25.37;100.00;100231.66;5070008;28;20271;-74
2023/07/08 08:30:01;;;;;;;;;;;;;;;25.40;100.00;100231.19;5074451;28;20368;-73
2023/07/08 08:32:27;;;;;;;;;;;;;;;25.46;100.00;100219.50;5074241;28;19962;-74
2023/07/08 08:34:52;;;;;;;;;;;;;;;25.52;100.00;100224.00;5073688;28;19995;-74
2023/07/08 08:37:17;;;;;;;;;;;;;;;25.55;100.00;100218.19;5074416;28;19916;-75
2023/07/08 08:39:43;;;;;;;;;;;;;;;25.62;100.00;100213.53;5074098;28;20003;-77
2023/07/08 08:42:25;;;;;;;;;;;;;;;25.74;100.00;100215.53;5074513;28;19961;-77
2023/07/08 08:44:51;;;;;;;;;;;;;;;25.84;100.00;100221.22;5072239;28;19946;-80
2023/07/08 08:47:37;;;;;;;6.18;4.43;;;;;;;25.92;100.00;100223.63;5072685;28;19917;-77
2023/07/08 08:50:24;;;;;;;;;;;;;;;25.95;100.00;100212.34;5073836;28;20051;-77
2023/07/08 08:52:50;;;;;;;;;;;;;;;26.01;100.00;100219.53;5073956;28;19990;-76
2023/07/08 08:55:16;;;;;;;;;;;;;;;26.09;100.00;100213.84;5074480;28;20413;-76
2023/07/08 08:57:48;;;;;;;;;;;;;;;26.12;100.00;100218.78;5073577;28;19955;-75
2023/07/08 09:00:16;;;;;;;;;;;;;;;26.15;100.00;100209.41;5073775;28;19952;-75
2023/07/08 09:02:47;;;;;;;;;;;;;;;26.17;100.00;100199.97;5073936;28;19916;-76
2023/07/08 09:05:13;;;;;;;;;;;;;;;26.19;100.00;100203.28;5073925;28;20390;-75
2023/07/08 09:07:44;;;;;;;;;;;;;;;26.24;100.00;100211.56;5073578;28;19952;-76
2023/07/08 09:10:16;;;;;;;;;;;;;;;26.30;100.00;100216.06;5070636;28;19984;-77
2023/07/08 09:12:41;;;;;;;;;;;;;;;26.36;94.26;100225.97;5069919;28;20434;-77
2023/07/08 09:15:11;;;;;;;;;;;;;;;26.42;94.96;100221.53;5074005;28;19916;-77
2023/07/08 09:17:37;;;;;;;;;;;;;;;26.46;91.95;100220.81;5069722;28;20414;-76
2023/07/08 09:20:03;;;;;;;;;;;;;;;26.50;90.52;100215.81;5073834;28;19916;-76
2023/07/08 09:22:34;;;;;;;;;;;;;;;26.54;89.99;100211.56;5071751;28;19946;-76
2023/07/08 09:25:17;;;;;;;;;;;;;;;26.54;91.65;100222.41;5073414;28;20335;-75
2023/07/08 09:27:43;;;;;;;;;;;;;;;26.59;91.60;100225.22;5070014;28;20364;-76
2023/07/08 09:30:13;;;;;;;;;;;;;;;26.59;89.14;100219.81;5073769;28;19923;-76
2023/07/08 09:32:39;;;;;;;;;;;;;;;26.62;90.86;100223.97;5069628;28;19916;-77
2023/07/08 09:35:06;;;;;;;;;;;;;;;26.63;92.29;100220.16;5070490;28;19928;-79
2023/07/08 09:37:35;;;;;;;;;;;;;;;26.69;92.31;100219.25;5070545;28;20710;-79
2023/07/08 09:40:03;;;;;;;;;;;;;;;26.69;92.39;100216.53;5073177;28;19962;-77
2023/07/08 09:42:31;;;;;;;;;;;;;;;26.75;92.30;100219.13;5072365;28;19949;-77
2023/07/08 09:44:58;;;;;;;;;;;;;;;26.81;89.85;100211.97;5073523;28;19916;-78
2023/07/08 09:47:30;;;;;;;;;;;;;;;26.80;88.23;100213.84;5073245;28;20377;-79
2023/07/08 09:49:56;;;;;;;;;;;;;;;26.87;89.95;100211.03;5069421;28;19916;-78
2023/07/08 09:52:22;;;;;;;;;;;;;;;26.92;89.72;100207.69;5067539;28;19912;-74
2023/07/08 09:54:47;;;;;;;;;;;;;;;26.95;89.64;100208.03;5072570;28;19973;-75
2023/07/08 09:57:22;;;;;;;;;;;;;;;27.00;87.89;100219.00;5072706;28;20372;-75
2023/07/08 09:59:49;;;;;;;;;;;;;;;27.00;88.54;100210.03;5073406;28;19962;-76
2023/07/08 10:02:34;;;;;;;;;;;;;;;26.97;87.01;100208.63;5073292;28;19960;-75
2023/07/08 10:05:01;;;;;;;;;;;;;;;27.04;87.79;100217.44;5073158;28;19912;-75
2023/07/08 10:07:31;;;;;;;;;;;;;;;27.10;88.46;100211.09;5071004;28;19916;-78
2023/07/08 10:09:58;;;;;;;;;;;;;;;27.15;85.11;100210.41;5072845;28;19970;-77
2023/07/08 10:12:23;;;;;;;;;;;;;;;27.18;84.11;100205.34;5070339;28;19923;-75
2023/07/08 10:14:52;;;;;;;;;;;;;;;27.22;85.43;100201.09;5072708;28;19920;-76
2023/07/08 10:17:18;;;;;;;;;;;;;;;27.26;86.87;100196.88;5070667;28;19972;-80
2023/07/08 10:19:44;;;;;;;;;;;;;;;27.25;84.69;100197.94;5071823;28;19927;-79
2023/07/08 10:22:10;;;;;;;;;;;;;;;27.28;84.60;100199.31;5067628;28;19920;-78
2023/07/08 10:24:36;;;;;;;;;;;;;;;27.31;85.28;100201.56;5084872;28;19917;-80
2023/07/08 10:27:04;;;;;;;;;;;;;;;27.32;82.62;100196.97;5072812;28;19924;-78
2023/07/08 10:29:36;;;;;;;;;;;;;;;27.29;83.46;100190.97;5072378;28;19920;-74
2023/07/08 10:32:15;;;;;;;;;;;;;;;27.34;82.22;100195.66;5072198;28;21366;-79
2023/07/08 10:35:01;;;;;;;;;;;;;;;27.34;85.45;100194.84;5081739;28;19987;-79
2023/07/08 10:37:39;;;;;;;;;;;;;;;27.35;86.87;100202.75;5083480;28;19921;-76
2023/07/08 10:40:19;;;;;;;;;;;;;;;27.37;85.36;100188.97;5072972;28;19916;-78
2023/07/08 10:42:59;;;;;;;;;;;;;;;27.39;85.05;100194.97;5067703;28;19923;-78
2023/07/08 10:45:37;;;;;;;;;;;;;;;27.43;85.57;100188.84;5068886;28;19916;-78
2023/07/08 10:48:02;;;;;;;;;;;;;;;27.48;85.52;100198.97;5071164;28;19920;-77
2023/07/08 10:50:31;;;;;;;;;;;;;;;27.48;85.51;100188.13;5071618;28;19963;-76
2023/07/08 10:53:14;;;;;;;;;;;;;;;27.51;85.79;100190.41;5071568;28;19920;-76
2023/07/08 10:55:57;;;;;;;;;;;;;;;27.54;84.18;100190.75;5068683;28;19924;-75
2023/07/08 10:58:23;;;;;;;;;;;;;;;27.60;84.74;100188.97;5069368;28;19920;-77
2023/07/08 11:00:57;;;;;;;;;;;;;;;27.59;84.38;100187.31;5070901;28;20007;-77
2023/07/08 11:03:22;;;;;;;;;;;;;;;27.60;84.78;100180.84;5071821;28;19916;-77
2023/07/08 11:06:08;;;;;;;;;;;;;;;27.62;85.02;100181.44;5071472;28;19928;-77
2023/07/08 11:08:40;;;;;;;;;;;;;;;27.67;84.15;100185.06;5058957;28;19985;-77
2023/07/08 11:11:09;;;;;;;;;;;;;;;27.72;83.92;100197.91;5070799;28;20279;-76
2023/07/08 11:13:36;;;;;;;;;;;;;;;27.75;83.61;100188.44;5070342;28;20003;-77
2023/07/08 11:16:09;;;;;;;;;;;;;;;27.79;83.21;100182.34;5071337;28;20019;-78
2023/07/08 11:18:47;;;;;;;;;;;;;;;27.80;82.41;100189.41;5070422;28;20015;-74
2023/07/08 11:21:16;;;;;;;;;;;;;;;27.85;82.38;100181.38;5067854;28;19918;-75
2023/07/08 11:23:53;;;;;;;;;;;;;;;27.89;82.92;100184.41;5070932;28;19916;-77
2023/07/08 11:26:18;;;;;;;;;;;;;;;27.96;82.26;100191.34;5068076;28;19912;-77
2023/07/08 11:28:43;;;;;;;;;;;;;;;28.02;81.42;100193.09;5070386;28;19966;-75
2023/07/08 11:31:10;;;;;;;;;;;;;;;28.06;81.59;100183.41;5070804;28;19920;-75
2023/07/08 11:33:36;;;;;;;;;;;;;;;28.14;81.83;100179.53;5070835;28;19916;-75
2023/07/08 11:36:03;;;;;;;;;;;;;;;28.19;81.85;100174.19;5070662;28;19958;-74
2023/07/08 11:38:28;;;;;;;;;;;;;;;28.26;81.61;100176.75;5070898;28;19977;-75
2023/07/08 11:40:57;;;;;;;;;;;;;;;28.26;80.77;100169.44;5066519;28;19920;-76
2023/07/08 11:43:24;;;;;;;;;;;;;;;28.32;81.96;100164.94;5066174;28;19962;-75
2023/07/08 11:45:53;;;;;;;;;;;;;;;28.40;82.13;100156.38;5069483;28;19920;-75
2023/07/08 11:48:23;;;;;;;;;;;;;;;28.53;78.73;100161.50;5070806;28;19920;-76
2023/07/08 11:50:51;;;;;;;;;;;;;;;28.58;80.43;100153.44;5070448;28;20326;-77
2023/07/08 11:53:28;;;;;;;;;;;;;;;28.66;78.21;100149.50;5070875;28;20295;-76
2023/07/08 11:55:56;;;;;;;;;;;;;;;28.73;77.99;100150.16;5070851;28;20364;-76
2023/07/08 11:58:23;;;;;;;;;;;;;;;28.77;77.56;100145.91;5070707;28;19924;-75
2023/07/08 12:01:19;;;;;;;;;;;;;;;28.75;76.43;100138.00;5070361;28;19926;-77
2023/07/08 12:03:49;;;;;;;;;;;;;;;28.78;76.72;100145.66;5067408;28;19924;-76
2023/07/08 12:06:40;;;;;;;;;;;;;;;28.87;76.76;100148.78;5070372;28;19923;-75
2023/07/08 12:09:21;;;;;;;;;;;;;;;29.01;75.61;100143.84;5064480;28;19938;-75
2023/07/08 12:11:47;;;;;;;;;;;;;;;29.07;74.46;100146.38;5067610;28;19920;-75
2023/07/08 12:14:14;;;;;;;;;;;;;;;29.04;72.06;100141.44;5070579;28;20016;-75
2023/07/08 12:16:42;;;;;;;;;;;;;;;29.12;73.57;100137.47;5070035;28;19974;-74
2023/07/08 12:19:10;;;;;;;;;;;;;;;29.25;71.81;100137.94;5064755;28;19931;-75
2023/07/08 12:21:36;;;;;;;;;;;;;;;29.29;71.77;100132.81;5069657;28;19938;-75
2023/07/08 12:24:06;;;;;;;;;;;;;;;29.46;72.08;100133.63;5070386;28;20376;-75
2023/07/08 12:26:32;;;;;;;;;;;;;;;29.65;69.56;100137.69;5070410;28;20324;-76